Farnham, Virginia
Current Conditions -  °F | °C
As of 8:55 AM on Monday 20 Oct 2014 (Local Time) from KXSA Reporting Station
Clear Clear  
Wind Chill: 46°   Ceiling: Unl
Heat Index: 47°   Visibility: 10mi
Dew Point: 41°   Wind: 5mph
Humidity: 77%   Direction: 180°S
Pressure: 30.16"   Gusts: NA
Location:  37.89°N, 76.62°W
Report Text: KXSA 201255Z AUTO 18004KT 10SM CLR 09/05 A3016 RMK AO2 T00860048
Loading
Personal Weather Stations






























Interactive Weather Map
Tropical Storm Tracking
New forecast layout! Learn more

10-Day Weather Forecast

Advertisements
Track Severe Weather on mobile